createdAt,value
2023-07-15T00:01:20.205Z,14.37
2023-07-15T00:04:23.116Z,14.43
2023-07-15T00:07:26.928Z,14.43
2023-07-15T00:10:29.472Z,14.46
2023-07-15T00:13:32.493Z,14.35
2023-07-15T00:16:35.835Z,14.31
2023-07-15T00:19:39.264Z,14.32
2023-07-15T00:22:45.748Z,14.36
2023-07-15T00:25:50.075Z,14.34
2023-07-15T00:28:53.027Z,14.25
2023-07-15T00:31:57.367Z,14.28
2023-07-15T00:34:59.986Z,14.24
2023-07-15T00:38:02.868Z,14.17
2023-07-15T00:41:16.515Z,13.94
2023-07-15T00:44:19.221Z,14.04
2023-07-15T00:47:32.626Z,14.05
2023-07-15T00:50:35.617Z,14.04
2023-07-15T00:53:38.689Z,13.98
2023-07-15T00:56:42.937Z,13.96
2023-07-15T00:59:46.747Z,13.88
2023-07-15T01:02:49.924Z,13.90
2023-07-15T01:05:53.275Z,13.88
2023-07-15T01:08:56.145Z,13.86
2023-07-15T01:11:58.793Z,13.81
2023-07-15T01:15:04.297Z,13.80
2023-07-15T01:18:06.782Z,13.86
2023-07-15T01:21:09.812Z,13.85
2023-07-15T01:24:12.586Z,13.85
2023-07-15T01:27:16.179Z,13.82
2023-07-15T01:30:18.774Z,13.66
2023-07-15T01:33:23.371Z,13.43
2023-07-15T01:36:26.561Z,13.48
2023-07-15T01:39:29.575Z,13.57
2023-07-15T01:42:32.146Z,13.35
2023-07-15T01:45:35.013Z,13.51
2023-07-15T01:48:37.978Z,13.49
2023-07-15T01:51:41.119Z,13.43
2023-07-15T01:54:43.835Z,13.39
2023-07-15T01:57:46.945Z,13.39
2023-07-15T02:00:52.084Z,13.42
2023-07-15T02:03:55.492Z,13.33
2023-07-15T02:06:58.369Z,13.34
2023-07-15T02:10:01.318Z,13.29
2023-07-15T02:13:03.924Z,13.32
2023-07-15T02:16:08.652Z,13.30
2023-07-15T02:19:12.149Z,13.32
2023-07-15T02:22:15.036Z,13.26
2023-07-15T02:25:18.058Z,13.24
2023-07-15T02:28:22.872Z,13.20
2023-07-15T02:31:25.721Z,13.21
2023-07-15T02:34:28.836Z,13.12
2023-07-15T02:37:31.415Z,13.15
2023-07-15T02:40:34.291Z,13.05
2023-07-15T02:43:36.857Z,12.88
2023-07-15T02:46:39.824Z,13.01
2023-07-15T02:49:42.287Z,13.12
2023-07-15T02:52:47.000Z,13.06
2023-07-15T02:55:51.259Z,13.09
2023-07-15T02:58:55.449Z,12.84
2023-07-15T03:01:58.529Z,12.89
2023-07-15T03:05:01.676Z,13.09
2023-07-15T03:08:04.336Z,13.14
2023-07-15T03:11:10.478Z,13.16
2023-07-15T03:14:12.961Z,13.28
2023-07-15T03:17:16.817Z,13.35
2023-07-15T03:20:22.248Z,13.32
2023-07-15T03:23:25.182Z,13.41
2023-07-15T03:26:27.661Z,13.44
2023-07-15T03:29:32.110Z,13.52
2023-07-15T03:32:38.033Z,13.51
2023-07-15T03:35:45.681Z,13.58
2023-07-15T03:38:48.325Z,13.56
2023-07-15T03:41:51.116Z,13.58
2023-07-15T03:44:54.291Z,13.63
2023-07-15T03:47:57.331Z,13.72
2023-07-15T03:51:00.008Z,13.64
2023-07-15T03:54:02.845Z,13.61
2023-07-15T03:57:05.555Z,13.64
2023-07-15T04:00:15.341Z,13.75
2023-07-15T04:03:20.269Z,13.77
2023-07-15T04:06:23.318Z,13.82
2023-07-15T04:09:26.053Z,13.90
2023-07-15T04:12:28.814Z,13.99
2023-07-15T04:15:32.183Z,14.12
2023-07-15T04:18:35.033Z,14.20
2023-07-15T04:21:37.871Z,14.25
2023-07-15T04:24:40.682Z,14.37
2023-07-15T04:27:43.721Z,14.45
2023-07-15T04:30:47.092Z,14.52
2023-07-15T04:33:51.392Z,14.65
2023-07-15T04:36:54.290Z,14.75
2023-07-15T04:39:56.770Z,14.90
2023-07-15T04:42:59.657Z,15.07
2023-07-15T04:46:02.706Z,15.19
2023-07-15T04:49:05.739Z,15.36
2023-07-15T04:52:08.583Z,15.55
2023-07-15T04:55:11.580Z,15.54
2023-07-15T04:58:19.393Z,15.61
2023-07-15T05:01:23.871Z,15.78
2023-07-15T05:04:26.411Z,15.83
2023-07-15T05:07:32.745Z,15.93
2023-07-15T05:10:45.481Z,16.06
2023-07-15T05:13:48.662Z,16.14
2023-07-15T05:16:51.655Z,16.19
2023-07-15T05:19:54.589Z,16.34
2023-07-15T05:22:57.211Z,16.54
2023-07-15T05:26:01.738Z,16.65
2023-07-15T05:29:04.472Z,16.80
2023-07-15T05:32:07.932Z,16.94
2023-07-15T05:35:10.501Z,17.02
2023-07-15T05:38:13.215Z,17.18
2023-07-15T05:41:16.297Z,17.35
2023-07-15T05:44:19.419Z,17.45
2023-07-15T05:47:21.962Z,17.58
2023-07-15T05:50:24.869Z,17.70
2023-07-15T05:53:28.643Z,17.95
2023-07-15T05:56:31.607Z,18.12
2023-07-15T05:59:34.260Z,18.40
2023-07-15T06:02:40.246Z,18.76
2023-07-15T06:05:42.844Z,19.06
2023-07-15T06:08:47.373Z,19.43
2023-07-15T06:11:50.079Z,19.94
2023-07-15T06:14:53.129Z,20.45
2023-07-15T06:18:00.690Z,20.90
2023-07-15T06:21:04.404Z,21.41
2023-07-15T06:24:07.176Z,21.68
2023-07-15T06:27:10.164Z,22.08
2023-07-15T06:30:13.107Z,22.46
2023-07-15T06:33:16.423Z,23.10
2023-07-15T06:36:18.868Z,23.73
2023-07-15T06:39:21.741Z,24.06
2023-07-15T06:42:24.326Z,24.49
2023-07-15T06:45:34.189Z,24.84
2023-07-15T06:48:36.816Z,25.15
2023-07-15T06:51:40.251Z,25.54
2023-07-15T06:54:42.695Z,25.76
2023-07-15T06:57:45.613Z,26.12
2023-07-15T07:00:48.270Z,26.40
2023-07-15T07:03:51.508Z,26.62
2023-07-15T07:06:54.003Z,26.99
2023-07-15T07:09:56.706Z,27.59
2023-07-15T07:12:59.313Z,27.52
2023-07-15T07:16:02.114Z,27.81
2023-07-15T07:19:04.745Z,28.04
2023-07-15T07:22:07.756Z,28.20
2023-07-15T07:25:10.994Z,28.34
2023-07-15T07:28:13.902Z,28.50
2023-07-15T07:31:19.432Z,28.43
2023-07-15T07:34:22.630Z,28.92
2023-07-15T07:37:25.289Z,29.13
2023-07-15T07:40:28.177Z,29.12
2023-07-15T07:43:30.736Z,29.22
2023-07-15T07:46:33.534Z,29.36
2023-07-15T07:49:36.133Z,29.55
2023-07-15T07:52:39.025Z,29.67
2023-07-15T07:55:41.535Z,30.03
2023-07-15T07:58:45.747Z,30.65
2023-07-15T08:01:48.457Z,31.08
2023-07-15T08:04:51.306Z,30.96
2023-07-15T08:07:53.950Z,30.97
2023-07-15T08:10:56.809Z,31.15
2023-07-15T08:13:59.254Z,31.46
2023-07-15T08:17:02.229Z,31.49
2023-07-15T08:20:05.480Z,31.34
2023-07-15T08:23:08.471Z,31.68
2023-07-15T08:26:11.166Z,31.18
2023-07-15T08:29:14.004Z,31.34
2023-07-15T08:32:16.614Z,31.42
2023-07-15T08:35:19.547Z,31.65
2023-07-15T08:38:22.165Z,31.91
2023-07-15T08:41:25.739Z,31.96
2023-07-15T08:44:28.458Z,32.34
2023-07-15T08:47:31.542Z,32.34
2023-07-15T08:50:35.586Z,32.73
2023-07-15T08:53:40.360Z,32.80
2023-07-15T08:56:42.974Z,32.90
2023-07-15T08:59:50.701Z,33.11
2023-07-15T09:02:54.121Z,32.84
2023-07-15T09:05:56.979Z,32.94
2023-07-15T09:08:59.385Z,33.33
2023-07-15T09:12:07.592Z,33.30
2023-07-15T09:15:11.862Z,33.13
2023-07-15T09:18:16.421Z,33.51
2023-07-15T09:21:19.392Z,33.27
2023-07-15T09:24:23.581Z,33.40
2023-07-15T09:27:27.743Z,33.57
2023-07-15T09:30:30.510Z,33.70
2023-07-15T09:33:41.413Z,33.89
2023-07-15T09:36:44.548Z,33.69
2023-07-15T09:39:57.090Z,33.80
2023-07-15T09:43:00.002Z,33.88
2023-07-15T09:46:02.610Z,33.86
2023-07-15T09:49:05.580Z,33.97
2023-07-15T09:52:08.329Z,33.79
2023-07-15T09:55:11.289Z,33.98
2023-07-15T09:58:23.134Z,34.42
2023-07-15T10:01:43.125Z,34.16
2023-07-15T10:04:47.340Z,34.12
2023-07-15T10:07:52.637Z,33.95
2023-07-15T10:10:55.178Z,34.07
2023-07-15T10:13:58.349Z,34.24
2023-07-15T10:17:17.000Z,33.93
2023-07-15T10:20:20.611Z,33.71
2023-07-15T10:23:28.383Z,33.98
2023-07-15T10:26:32.457Z,33.92
2023-07-15T10:29:34.926Z,34.41
2023-07-15T10:32:37.800Z,34.09
2023-07-15T10:35:43.842Z,34.46
2023-07-15T10:38:48.556Z,34.39
2023-07-15T10:41:53.783Z,34.71
2023-07-15T10:44:56.666Z,34.42
2023-07-15T10:48:00.375Z,34.05
2023-07-15T10:51:08.592Z,34.37
2023-07-15T10:54:11.141Z,34.67
2023-07-15T10:57:18.565Z,34.87
2023-07-15T11:00:21.123Z,34.90
2023-07-15T11:03:24.542Z,34.79
2023-07-15T11:06:27.324Z,35.14
2023-07-15T11:09:30.635Z,35.03
2023-07-15T11:12:33.620Z,35.53
2023-07-15T11:15:37.289Z,35.56
2023-07-15T11:18:39.779Z,34.85
2023-07-15T11:21:44.259Z,34.60
2023-07-15T11:24:48.150Z,33.98
2023-07-15T11:27:51.567Z,34.05
2023-07-15T11:30:54.149Z,34.06
2023-07-15T11:33:58.844Z,34.21
2023-07-15T11:37:04.346Z,34.38
2023-07-15T11:40:07.704Z,34.88
2023-07-15T11:43:10.024Z,35.09
2023-07-15T11:46:13.170Z,35.49
2023-07-15T11:49:23.053Z,35.30
2023-07-15T11:52:26.063Z,35.37
2023-07-15T11:55:28.648Z,35.60
2023-07-15T11:58:46.909Z,36.04
2023-07-15T12:01:49.475Z,35.54
2023-07-15T12:04:52.370Z,36.00
2023-07-15T12:07:54.950Z,35.76
2023-07-15T12:10:58.719Z,35.95
2023-07-15T12:14:02.437Z,36.20
2023-07-15T12:17:06.363Z,36.22
2023-07-15T12:20:09.352Z,35.96
2023-07-15T12:23:12.157Z,35.90
2023-07-15T12:26:15.072Z,35.74
2023-07-15T12:29:18.134Z,35.20
2023-07-15T12:32:20.753Z,34.99
2023-07-15T12:35:23.597Z,34.89
2023-07-15T12:38:26.100Z,34.98
2023-07-15T12:41:29.109Z,34.68
2023-07-15T12:44:31.586Z,34.96
2023-07-15T12:47:34.453Z,35.08
2023-07-15T12:50:37.033Z,35.04
2023-07-15T12:53:40.001Z,35.03
2023-07-15T12:56:42.516Z,35.18
2023-07-15T12:59:45.269Z,35.57
2023-07-15T13:02:48.145Z,35.79
2023-07-15T13:05:51.100Z,35.96
2023-07-15T13:08:53.624Z,35.88
2023-07-15T13:11:56.440Z,35.26
2023-07-15T13:14:59.052Z,35.24
2023-07-15T13:18:01.953Z,35.42
2023-07-15T13:21:04.544Z,35.33
2023-07-15T13:24:07.551Z,35.15
2023-07-15T13:27:10.030Z,34.82
2023-07-15T13:30:12.944Z,34.76
2023-07-15T13:33:15.404Z,34.82
2023-07-15T13:36:18.257Z,34.81
2023-07-15T13:39:41.013Z,34.62
2023-07-15T13:42:43.896Z,34.99
2023-07-15T13:45:47.411Z,35.22
2023-07-15T13:48:50.496Z,35.24
2023-07-15T13:51:53.142Z,35.22
2023-07-15T13:54:56.006Z,35.15
2023-07-15T13:57:58.587Z,35.35
2023-07-15T14:01:01.632Z,34.94
2023-07-15T14:04:04.371Z,35.03
2023-07-15T14:07:09.777Z,34.99
2023-07-15T14:10:13.470Z,35.12
2023-07-15T14:13:16.556Z,35.13
2023-07-15T14:16:19.176Z,35.03
2023-07-15T14:19:22.402Z,35.10
2023-07-15T14:22:38.433Z,34.97
2023-07-15T14:25:41.825Z,35.02
2023-07-15T14:28:44.636Z,35.08
2023-07-15T14:31:47.642Z,35.13
2023-07-15T14:34:50.190Z,35.07
2023-07-15T14:37:53.036Z,35.03
2023-07-15T14:40:55.620Z,34.98
2023-07-15T14:43:58.533Z,35.29
2023-07-15T14:47:01.279Z,35.19
2023-07-15T14:50:04.442Z,35.02
2023-07-15T14:53:08.530Z,34.78
2023-07-15T14:56:11.473Z,34.93
2023-07-15T14:59:14.051Z,34.82
2023-07-15T15:02:16.915Z,34.71
2023-07-15T15:05:19.478Z,34.75
2023-07-15T15:08:22.321Z,34.25
2023-07-15T15:11:24.927Z,34.17
2023-07-15T15:14:27.820Z,34.13
2023-07-15T15:17:30.235Z,34.33
2023-07-15T15:20:33.193Z,34.19
2023-07-15T15:23:35.673Z,34.16
2023-07-15T15:26:38.555Z,34.17
2023-07-15T15:29:41.045Z,34.12
2023-07-15T15:32:43.925Z,34.16
2023-07-15T15:35:46.463Z,34.33
2023-07-15T15:38:49.396Z,34.24
2023-07-15T15:41:51.854Z,33.69
2023-07-15T15:44:57.433Z,33.39
2023-07-15T15:48:00.010Z,33.10
2023-07-15T15:51:02.867Z,33.21
2023-07-15T15:54:05.734Z,33.20
2023-07-15T15:57:08.924Z,33.17
2023-07-15T16:00:12.177Z,33.27
2023-07-15T16:03:14.845Z,33.22
2023-07-15T16:06:17.749Z,33.34
2023-07-15T16:09:20.661Z,33.51
2023-07-15T16:12:23.182Z,33.60
2023-07-15T16:15:25.982Z,33.59
2023-07-15T16:18:28.441Z,33.51
2023-07-15T16:21:31.239Z,33.46
2023-07-15T16:24:33.621Z,33.52
2023-07-15T16:27:36.453Z,33.38
2023-07-15T16:30:42.145Z,33.32
2023-07-15T16:33:44.983Z,33.46
2023-07-15T16:36:47.526Z,33.53
2023-07-15T16:39:50.389Z,33.32
2023-07-15T16:42:53.716Z,33.34
2023-07-15T16:45:56.500Z,33.26
2023-07-15T16:48:59.097Z,33.07
2023-07-15T16:52:01.896Z,32.90
2023-07-15T16:55:05.163Z,32.98
2023-07-15T16:58:08.054Z,32.86
2023-07-15T17:01:10.659Z,32.93
2023-07-15T17:04:13.599Z,32.89
2023-07-15T17:07:16.010Z,32.80
2023-07-15T17:10:18.762Z,32.72
2023-07-15T17:13:21.228Z,32.65
2023-07-15T17:16:25.500Z,32.74
2023-07-15T17:19:28.023Z,32.50
2023-07-15T17:22:31.042Z,32.49
2023-07-15T17:25:33.561Z,32.57
2023-07-15T17:28:36.410Z,32.51
2023-07-15T17:31:39.067Z,32.41
2023-07-15T17:34:41.987Z,32.27
2023-07-15T17:37:44.502Z,32.14
2023-07-15T17:40:48.625Z,31.80
2023-07-15T17:43:52.289Z,31.79
2023-07-15T17:46:56.523Z,31.66
2023-07-15T17:49:59.058Z,31.55
2023-07-15T17:53:01.853Z,31.34
2023-07-15T17:56:04.597Z,31.21
2023-07-15T17:59:07.442Z,31.16
2023-07-15T18:02:09.900Z,31.04
2023-07-15T18:05:12.835Z,30.97
2023-07-15T18:08:17.483Z,30.88
2023-07-15T18:11:20.550Z,30.73
2023-07-15T18:14:23.087Z,30.61
2023-07-15T18:17:25.923Z,30.47
2023-07-15T18:20:28.597Z,30.32
2023-07-15T18:23:31.412Z,30.20
2023-07-15T18:26:33.879Z,30.01
2023-07-15T18:29:36.789Z,29.85
2023-07-15T18:32:39.523Z,29.64
2023-07-15T18:35:42.406Z,29.54
2023-07-15T18:38:44.961Z,29.39
2023-07-15T18:41:47.969Z,29.17
2023-07-15T18:44:50.816Z,28.95
2023-07-15T18:47:54.623Z,28.84
2023-07-15T18:50:57.142Z,28.67
2023-07-15T18:54:00.237Z,28.43
2023-07-15T18:57:20.614Z,28.25
2023-07-15T19:00:25.990Z,28.12
2023-07-15T19:03:28.698Z,27.93
2023-07-15T19:06:31.678Z,27.82
2023-07-15T19:09:34.473Z,27.70
2023-07-15T19:12:37.387Z,27.51
2023-07-15T19:15:39.830Z,27.37
2023-07-15T19:18:43.394Z,27.24
2023-07-15T19:21:46.039Z,27.14
2023-07-15T19:24:49.027Z,26.94
2023-07-15T19:27:51.541Z,26.83
2023-07-15T19:30:54.384Z,26.68
2023-07-15T19:33:58.058Z,26.53
2023-07-15T19:37:01.384Z,26.34
2023-07-15T19:40:05.259Z,26.27
2023-07-15T19:43:08.402Z,26.19
2023-07-15T19:46:12.730Z,26.10
2023-07-15T19:49:17.779Z,26.02
2023-07-15T19:52:20.998Z,25.88
2023-07-15T19:55:25.029Z,25.87
2023-07-15T19:58:28.176Z,25.74
2023-07-15T20:01:31.880Z,25.60
2023-07-15T20:04:34.904Z,25.56
2023-07-15T20:07:39.741Z,25.41
2023-07-15T20:10:42.862Z,25.37
2023-07-15T20:13:46.616Z,25.29
2023-07-15T20:16:52.454Z,25.26
2023-07-15T20:19:56.233Z,25.21
2023-07-15T20:22:59.847Z,25.09
2023-07-15T20:26:04.736Z,24.96
2023-07-15T20:29:08.410Z,24.87
2023-07-15T20:32:21.674Z,24.84
2023-07-15T20:35:26.091Z,24.79
2023-07-15T20:38:29.727Z,24.67
2023-07-15T20:41:33.239Z,24.70
2023-07-15T20:44:36.689Z,24.58
2023-07-15T20:47:46.904Z,24.38
2023-07-15T20:50:50.598Z,24.34
2023-07-15T20:53:57.178Z,24.32
2023-07-15T20:57:00.609Z,24.22
2023-07-15T21:00:04.157Z,24.16
2023-07-15T21:03:07.684Z,24.12
2023-07-15T21:06:10.164Z,24.08
2023-07-15T21:09:13.340Z,24.02
2023-07-15T21:12:15.891Z,24.03
2023-07-15T21:15:18.710Z,24.00
2023-07-15T21:18:23.915Z,23.90
2023-07-15T21:21:26.676Z,23.88
2023-07-15T21:24:29.057Z,23.82
2023-07-15T21:27:32.043Z,23.79
2023-07-15T21:30:34.483Z,23.73
2023-07-15T21:33:37.820Z,23.68
2023-07-15T21:36:40.359Z,23.58
2023-07-15T21:39:43.261Z,23.55
2023-07-15T21:42:45.791Z,23.49
2023-07-15T21:45:48.978Z,23.50
2023-07-15T21:48:51.576Z,23.46
2023-07-15T21:51:54.444Z,23.37
2023-07-15T21:54:56.976Z,23.36
2023-07-15T21:57:59.936Z,23.32
2023-07-15T22:01:02.637Z,23.26
2023-07-15T22:04:05.717Z,23.24
2023-07-15T22:07:08.374Z,23.20
2023-07-15T22:10:11.625Z,23.15
2023-07-15T22:13:14.135Z,23.13
2023-07-15T22:16:17.327Z,23.05
2023-07-15T22:19:20.041Z,23.01
2023-07-15T22:22:23.572Z,22.99
2023-07-15T22:25:26.116Z,22.88
2023-07-15T22:28:28.959Z,22.86
2023-07-15T22:31:31.462Z,22.84
2023-07-15T22:34:37.687Z,22.83
2023-07-15T22:37:40.151Z,22.76
2023-07-15T22:40:42.904Z,22.74
2023-07-15T22:43:45.387Z,22.70
2023-07-15T22:46:48.288Z,22.67
2023-07-15T22:49:50.998Z,22.63
2023-07-15T22:52:53.780Z,22.54
2023-07-15T22:55:56.293Z,22.47
2023-07-15T22:58:59.244Z,22.33
2023-07-15T23:02:02.814Z,22.22
2023-07-15T23:05:07.499Z,22.15
2023-07-15T23:08:09.996Z,22.11
2023-07-15T23:11:12.908Z,22.08
2023-07-15T23:14:17.862Z,22.06
2023-07-15T23:17:21.986Z,21.99
2023-07-15T23:20:24.638Z,21.93
2023-07-15T23:23:27.559Z,21.90
2023-07-15T23:26:30.152Z,21.89
2023-07-15T23:29:33.069Z,21.86
2023-07-15T23:32:35.643Z,21.81
2023-07-15T23:35:45.457Z,21.78
2023-07-15T23:38:47.912Z,21.76
2023-07-15T23:41:50.720Z,21.73
2023-07-15T23:44:53.382Z,21.65
2023-07-15T23:47:56.286Z,21.63
2023-07-15T23:50:59.138Z,21.58
2023-07-15T23:54:01.914Z,21.58
2023-07-15T23:57:04.705Z,21.53
